Cheektowaga, NY

11:05 PM EST on December 04, 2016 (GMT -0500)
Cheektowaga | | Change Station

Elev 646 ft 42.92 °N, 78.77 °W | Updated 57 seconds ago

Overcast
Overcast
36.1 °F
Feels Like 36 °F
N
1.0
Wind Variable Wind from East
Gusts 5.0 mph

Today
High -- | Low -- °F
--% Chance of Precip.
Yesterday
High -- | Low -- °F
Precip. -- in
Pressure 29.92 in
Visibility 10.0 miles
Clouds Scattered Clouds 5500 ft
Mostly Cloudy 8000 ft
Overcast 11000 ft
Windchill 36 °F
Dew Point 28 °F
Humidity 72%
Rainfall 0.00 in
Snow Depth Not available.
7:29 AM 4:40 PM
Waxing Crescent, 28% visible
METAR KBUF 050354Z 07006KT 10SM SCT055 BKN080 OVC110 02/M03 A2990 RMK AO2 PRESRR SLP132 T00221033
Pressure 29.92 in
Visibility 10.0 miles
Clouds Scattered Clouds 5500 ft
Mostly Cloudy 8000 ft
Overcast 11000 ft
Windchill 36 °F
Dew Point 28 °F
Humidity 72%
Rainfall 0.00 in
Snow Depth Not available.
7:29 AM 4:40 PM
Waxing Crescent, 28% visible
METAR KBUF 050354Z 07006KT 10SM SCT055 BKN080 OVC110 02/M03 A2990 RMK AO2 PRESRR SLP132 T00221033

10-Day Weather Forecast

Almanac

Astronomy

Dec. 04, 2016 Rise Set
Actual Time
Civil Twilight
Nautical Twilight
Astronomical Twilight
Moon
Length of Visible Light
Length of Day
Tomorrow will be .
, % of the Moon is Illuminated

Today's Extremes

State Highs State Lows

Community

WunderPhotos

Upload Photos

1,955,757 photos uploaded!

WunderBlog® & News

Nearby

Air Quality

  Air Quality AQ Index Pollutant
Not available.

Snow Depth

Station Depth Elevation

Earthquake Activity

City Distance Mag. Time & Date
Minimum magnitude displayed is 2.5.

Coastal Water Temperatures

Place Temperature

Stations

Nearby Weather Stations

Station Location Temp. Windchill Dew Point Humidity Wind Precip. Elev Updated Type
                   

Watches & Warnings

There are currently no watches in effect.